sensor_id;sensor_type;location;lat;lon;timestamp;P1;durP1;ratioP1;P2;durP2;ratioP2
38843;SDS011;24596;48.080;8.362;2022-10-04T00:06:54;23.48;;;5.60;;
38843;SDS011;24596;48.080;8.362;2022-10-04T00:09:21;18.38;;;5.43;;
38843;SDS011;24596;48.080;8.362;2022-10-04T00:11:47;22.27;;;5.25;;
38843;SDS011;24596;48.080;8.362;2022-10-04T00:14:27;14.38;;;5.80;;
38843;SDS011;24596;48.080;8.362;2022-10-04T00:16:53;10.68;;;4.55;;
38843;SDS011;24596;48.080;8.362;2022-10-04T00:24:22;12.55;;;4.38;;
38843;SDS011;24596;48.080;8.362;2022-10-04T00:29:33;23.65;;;5.75;;
38843;SDS011;24596;48.080;8.362;2022-10-04T00:34:46;11.55;;;4.88;;
38843;SDS011;24596;48.080;8.362;2022-10-04T00:37:12;38.15;;;5.40;;
38843;SDS011;24596;48.080;8.362;2022-10-04T00:39:39;47.33;;;5.75;;
38843;SDS011;24596;48.080;8.362;2022-10-04T00:46:56;16.85;;;5.07;;
38843;SDS011;24596;48.080;8.362;2022-10-04T00:49:23;37.63;;;5.03;;
38843;SDS011;24596;48.080;8.362;2022-10-04T00:54:19;9.82;;;4.72;;
38843;SDS011;24596;48.080;8.362;2022-10-04T00:56:56;7.05;;;3.97;;
38843;SDS011;24596;48.080;8.362;2022-10-04T00:59:45;11.80;;;4.15;;
38843;SDS011;24596;48.080;8.362;2022-10-04T01:05:05;22.83;;;5.22;;
38843;SDS011;24596;48.080;8.362;2022-10-04T01:07:32;11.73;;;4.57;;
38843;SDS011;24596;48.080;8.362;2022-10-04T01:11:01;18.77;;;5.07;;
38843;SDS011;24596;48.080;8.362;2022-10-04T01:18:07;17.60;;;4.45;;
38843;SDS011;24596;48.080;8.362;2022-10-04T01:20:34;12.93;;;4.53;;
38843;SDS011;24596;48.080;8.362;2022-10-04T01:23:01;16.35;;;4.78;;
38843;SDS011;24596;48.080;8.362;2022-10-04T01:25:49;13.88;;;5.13;;
38843;SDS011;24596;48.080;8.362;2022-10-04T01:28:15;10.82;;;5.30;;
38843;SDS011;24596;48.080;8.362;2022-10-04T01:30:41;10.98;;;4.45;;
38843;SDS011;24596;48.080;8.362;2022-10-04T01:33:06;12.82;;;4.97;;
38843;SDS011;24596;48.080;8.362;2022-10-04T01:35:31;26.13;;;5.82;;
38843;SDS011;24596;48.080;8.362;2022-10-04T01:37:59;28.30;;;6.97;;
38843;SDS011;24596;48.080;8.362;2022-10-04T01:40:24;15.82;;;6.72;;
38843;SDS011;24596;48.080;8.362;2022-10-04T01:42:50;11.73;;;5.10;;
38843;SDS011;24596;48.080;8.362;2022-10-04T01:47:47;18.48;;;6.07;;
38843;SDS011;24596;48.080;8.362;2022-10-04T01:50:19;18.92;;;6.35;;
38843;SDS011;24596;48.080;8.362;2022-10-04T01:52:49;20.30;;;6.63;;
38843;SDS011;24596;48.080;8.362;2022-10-04T01:55:16;14.82;;;5.40;;
38843;SDS011;24596;48.080;8.362;2022-10-04T01:57:53;11.32;;;5.68;;
38843;SDS011;24596;48.080;8.362;2022-10-04T02:00:20;11.57;;;5.85;;
38843;SDS011;24596;48.080;8.362;2022-10-04T02:02:51;11.95;;;4.82;;
38843;SDS011;24596;48.080;8.362;2022-10-04T02:05:51;11.63;;;4.35;;
38843;SDS011;24596;48.080;8.362;2022-10-04T02:08:11;15.80;;;4.90;;
38843;SDS011;24596;48.080;8.362;2022-10-04T02:10:37;16.20;;;4.78;;
38843;SDS011;24596;48.080;8.362;2022-10-04T02:13:13;20.95;;;4.65;;
38843;SDS011;24596;48.080;8.362;2022-10-04T02:15:39;32.83;;;6.32;;
38843;SDS011;24596;48.080;8.362;2022-10-04T02:18:08;8.55;;;4.80;;
38843;SDS011;24596;48.080;8.362;2022-10-04T02:20:35;15.88;;;5.50;;
38843;SDS011;24596;48.080;8.362;2022-10-04T02:23:02;16.77;;;5.00;;
38843;SDS011;24596;48.080;8.362;2022-10-04T02:25:28;21.48;;;5.07;;
38843;SDS011;24596;48.080;8.362;2022-10-04T02:27:54;13.98;;;4.70;;
38843;SDS011;24596;48.080;8.362;2022-10-04T02:30:19;14.65;;;6.35;;
38843;SDS011;24596;48.080;8.362;2022-10-04T02:32:44;20.92;;;5.18;;
38843;SDS011;24596;48.080;8.362;2022-10-04T02:35:28;13.60;;;5.05;;
38843;SDS011;24596;48.080;8.362;2022-10-04T02:37:58;13.10;;;4.88;;
38843;SDS011;24596;48.080;8.362;2022-10-04T02:40:33;12.57;;;5.05;;
38843;SDS011;24596;48.080;8.362;2022-10-04T02:43:07;13.70;;;5.28;;
38843;SDS011;24596;48.080;8.362;2022-10-04T02:48:01;11.38;;;5.15;;
38843;SDS011;24596;48.080;8.362;2022-10-04T02:50:50;10.23;;;5.28;;
38843;SDS011;24596;48.080;8.362;2022-10-04T02:55:42;8.90;;;4.97;;
38843;SDS011;24596;48.080;8.362;2022-10-04T02:58:12;8.63;;;5.25;;
38843;SDS011;24596;48.080;8.362;2022-10-04T03:00:48;12.00;;;5.30;;
38843;SDS011;24596;48.080;8.362;2022-10-04T03:03:30;9.25;;;5.10;;
38843;SDS011;24596;48.080;8.362;2022-10-04T03:05:59;10.17;;;5.30;;
38843;SDS011;24596;48.080;8.362;2022-10-04T03:08:26;9.40;;;4.65;;
38843;SDS011;24596;48.080;8.362;2022-10-04T03:10:51;8.07;;;4.35;;
38843;SDS011;24596;48.080;8.362;2022-10-04T03:13:17;15.07;;;5.05;;
38843;SDS011;24596;48.080;8.362;2022-10-04T03:15:44;9.23;;;5.68;;
38843;SDS011;24596;48.080;8.362;2022-10-04T03:18:10;9.05;;;4.90;;
38843;SDS011;24596;48.080;8.362;2022-10-04T03:20:38;9.95;;;5.22;;
38843;SDS011;24596;48.080;8.362;2022-10-04T03:23:04;22.15;;;6.13;;
38843;SDS011;24596;48.080;8.362;2022-10-04T03:25:34;31.42;;;6.53;;
38843;SDS011;24596;48.080;8.362;2022-10-04T03:28:01;14.35;;;5.22;;
38843;SDS011;24596;48.080;8.362;2022-10-04T03:30:27;24.67;;;5.50;;
38843;SDS011;24596;48.080;8.362;2022-10-04T03:32:53;34.78;;;6.00;;
38843;SDS011;24596;48.080;8.362;2022-10-04T03:35:27;13.40;;;5.13;;
38843;SDS011;24596;48.080;8.362;2022-10-04T03:37:53;9.35;;;5.25;;
38843;SDS011;24596;48.080;8.362;2022-10-04T03:40:20;12.20;;;5.57;;
38843;SDS011;24596;48.080;8.362;2022-10-04T03:42:50;11.90;;;6.20;;
38843;SDS011;24596;48.080;8.362;2022-10-04T03:45:16;9.57;;;5.20;;
38843;SDS011;24596;48.080;8.362;2022-10-04T03:47:43;10.75;;;5.57;;
38843;SDS011;24596;48.080;8.362;2022-10-04T03:50:12;9.38;;;5.43;;
38843;SDS011;24596;48.080;8.362;2022-10-04T03:52:45;8.82;;;5.20;;
38843;SDS011;24596;48.080;8.362;2022-10-04T03:55:12;8.68;;;4.57;;
38843;SDS011;24596;48.080;8.362;2022-10-04T03:57:39;9.48;;;5.03;;
38843;SDS011;24596;48.080;8.362;2022-10-04T04:00:04;12.10;;;4.90;;
38843;SDS011;24596;48.080;8.362;2022-10-04T04:05:09;16.08;;;4.88;;
38843;SDS011;24596;48.080;8.362;2022-10-04T04:07:42;10.00;;;4.82;;
38843;SDS011;24596;48.080;8.362;2022-10-04T04:10:16;9.50;;;5.00;;
38843;SDS011;24596;48.080;8.362;2022-10-04T04:12:43;8.30;;;4.95;;
38843;SDS011;24596;48.080;8.362;2022-10-04T04:15:12;8.98;;;4.93;;
38843;SDS011;24596;48.080;8.362;2022-10-04T04:17:41;18.45;;;5.60;;
38843;SDS011;24596;48.080;8.362;2022-10-04T04:22:42;11.43;;;5.68;;
38843;SDS011;24596;48.080;8.362;2022-10-04T04:25:11;16.58;;;6.03;;
38843;SDS011;24596;48.080;8.362;2022-10-04T04:27:38;16.38;;;5.63;;
38843;SDS011;24596;48.080;8.362;2022-10-04T04:30:04;12.82;;;5.40;;
38843;SDS011;24596;48.080;8.362;2022-10-04T04:32:32;13.00;;;5.88;;
38843;SDS011;24596;48.080;8.362;2022-10-04T04:35:00;10.55;;;5.95;;
38843;SDS011;24596;48.080;8.362;2022-10-04T04:37:31;13.43;;;5.63;;
38843;SDS011;24596;48.080;8.362;2022-10-04T04:39:57;10.68;;;6.22;;
38843;SDS011;24596;48.080;8.362;2022-10-04T04:42:35;12.25;;;5.85;;
38843;SDS011;24596;48.080;8.362;2022-10-04T04:45:02;11.38;;;6.07;;
38843;SDS011;24596;48.080;8.362;2022-10-04T04:47:31;15.20;;;6.57;;
38843;SDS011;24596;48.080;8.362;2022-10-04T04:50:01;15.32;;;8.57;;
38843;SDS011;24596;48.080;8.362;2022-10-04T04:52:30;14.00;;;7.13;;
38843;SDS011;24596;48.080;8.362;2022-10-04T04:54:56;15.30;;;5.60;;
38843;SDS011;24596;48.080;8.362;2022-10-04T04:57:21;10.38;;;5.13;;
38843;SDS011;24596;48.080;8.362;2022-10-04T04:59:47;11.40;;;6.32;;
38843;SDS011;24596;48.080;8.362;2022-10-04T05:02:27;13.52;;;6.53;;
38843;SDS011;24596;48.080;8.362;2022-10-04T05:05:08;12.50;;;6.53;;
38843;SDS011;24596;48.080;8.362;2022-10-04T05:07:34;12.32;;;6.53;;
38843;SDS011;24596;48.080;8.362;2022-10-04T05:09:59;12.52;;;6.15;;
38843;SDS011;24596;48.080;8.362;2022-10-04T05:12:24;13.32;;;7.00;;
38843;SDS011;24596;48.080;8.362;2022-10-04T05:14:50;12.52;;;6.43;;
38843;SDS011;24596;48.080;8.362;2022-10-04T05:17:26;22.23;;;6.60;;
38843;SDS011;24596;48.080;8.362;2022-10-04T05:19:57;12.35;;;6.75;;
38843;SDS011;24596;48.080;8.362;2022-10-04T05:22:24;13.20;;;6.55;;
38843;SDS011;24596;48.080;8.362;2022-10-04T05:24:51;15.02;;;7.35;;
38843;SDS011;24596;48.080;8.362;2022-10-04T05:27:31;11.57;;;7.18;;
38843;SDS011;24596;48.080;8.362;2022-10-04T05:30:07;13.15;;;6.75;;
38843;SDS011;24596;48.080;8.362;2022-10-04T05:32:42;19.83;;;9.05;;
38843;SDS011;24596;48.080;8.362;2022-10-04T05:35:16;15.50;;;8.50;;
38843;SDS011;24596;48.080;8.362;2022-10-04T05:40:26;23.88;;;8.00;;
38843;SDS011;24596;48.080;8.362;2022-10-04T05:42:53;25.13;;;7.75;;
38843;SDS011;24596;48.080;8.362;2022-10-04T05:45:26;38.05;;;8.02;;
38843;SDS011;24596;48.080;8.362;2022-10-04T05:47:55;51.88;;;6.97;;
38843;SDS011;24596;48.080;8.362;2022-10-04T05:50:40;16.67;;;7.43;;
38843;SDS011;24596;48.080;8.362;2022-10-04T06:01:06;18.17;;;7.38;;
38843;SDS011;24596;48.080;8.362;2022-10-04T06:04:13;13.35;;;6.95;;
38843;SDS011;24596;48.080;8.362;2022-10-04T06:06:45;14.35;;;6.30;;
38843;SDS011;24596;48.080;8.362;2022-10-04T06:12:23;14.45;;;7.05;;
38843;SDS011;24596;48.080;8.362;2022-10-04T06:22:27;12.60;;;6.45;;
38843;SDS011;24596;48.080;8.362;2022-10-04T06:24:56;11.75;;;7.20;;
38843;SDS011;24596;48.080;8.362;2022-10-04T06:27:32;11.70;;;6.40;;
38843;SDS011;24596;48.080;8.362;2022-10-04T06:30:04;10.13;;;5.60;;
38843;SDS011;24596;48.080;8.362;2022-10-04T06:32:49;10.85;;;6.18;;
38843;SDS011;24596;48.080;8.362;2022-10-04T06:35:34;11.38;;;5.72;;
38843;SDS011;24596;48.080;8.362;2022-10-04T06:46:09;10.45;;;6.43;;
38843;SDS011;24596;48.080;8.362;2022-10-04T06:56:25;10.07;;;6.00;;
38843;SDS011;24596;48.080;8.362;2022-10-04T06:59:10;9.30;;;5.60;;
38843;SDS011;24596;48.080;8.362;2022-10-04T07:01:48;9.13;;;5.10;;
38843;SDS011;24596;48.080;8.362;2022-10-04T07:06:50;10.70;;;5.88;;
38843;SDS011;24596;48.080;8.362;2022-10-04T07:09:20;10.50;;;6.28;;
38843;SDS011;24596;48.080;8.362;2022-10-04T07:11:52;11.10;;;6.03;;
38843;SDS011;24596;48.080;8.362;2022-10-04T07:14:21;13.23;;;5.82;;
38843;SDS011;24596;48.080;8.362;2022-10-04T07:16:52;9.40;;;6.03;;
38843;SDS011;24596;48.080;8.362;2022-10-04T07:22:09;9.10;;;5.85;;
38843;SDS011;24596;48.080;8.362;2022-10-04T07:27:08;10.95;;;5.90;;
38843;SDS011;24596;48.080;8.362;2022-10-04T07:29:37;9.00;;;4.45;;
38843;SDS011;24596;48.080;8.362;2022-10-04T07:34:31;9.20;;;5.50;;
38843;SDS011;24596;48.080;8.362;2022-10-04T07:36:57;9.75;;;4.70;;
38843;SDS011;24596;48.080;8.362;2022-10-04T07:41:52;9.37;;;5.27;;
38843;SDS011;24596;48.080;8.362;2022-10-04T07:44:22;8.05;;;4.90;;
38843;SDS011;24596;48.080;8.362;2022-10-04T07:46:50;9.13;;;5.53;;
38843;SDS011;24596;48.080;8.362;2022-10-04T07:49:18;10.55;;;4.65;;
38843;SDS011;24596;48.080;8.362;2022-10-04T07:54:13;9.23;;;4.70;;
38843;SDS011;24596;48.080;8.362;2022-10-04T08:01:38;10.20;;;4.70;;
38843;SDS011;24596;48.080;8.362;2022-10-04T08:06:59;10.05;;;4.65;;
38843;SDS011;24596;48.080;8.362;2022-10-04T08:12:17;8.68;;;5.05;;
38843;SDS011;24596;48.080;8.362;2022-10-04T08:14:50;11.18;;;4.57;;
38843;SDS011;24596;48.080;8.362;2022-10-04T08:29:53;8.13;;;3.65;;
38843;SDS011;24596;48.080;8.362;2022-10-04T08:46:02;6.35;;;2.92;;
38843;SDS011;24596;48.080;8.362;2022-10-04T09:06:11;7.35;;;2.80;;
38843;SDS011;24596;48.080;8.362;2022-10-04T09:16:54;6.35;;;2.50;;
38843;SDS011;24596;48.080;8.362;2022-10-04T09:35:07;7.35;;;2.25;;
38843;SDS011;24596;48.080;8.362;2022-10-04T09:45:46;3.55;;;1.50;;
38843;SDS011;24596;48.080;8.362;2022-10-04T10:01:05;3.72;;;1.63;;
38843;SDS011;24596;48.080;8.362;2022-10-04T10:03:39;3.13;;;1.30;;
38843;SDS011;24596;48.080;8.362;2022-10-04T10:06:19;4.00;;;1.40;;
38843;SDS011;24596;48.080;8.362;2022-10-04T10:17:18;3.78;;;1.45;;
38843;SDS011;24596;48.080;8.362;2022-10-04T10:25:26;3.47;;;1.30;;
38843;SDS011;24596;48.080;8.362;2022-10-04T10:30:48;2.45;;;0.90;;
38843;SDS011;24596;48.080;8.362;2022-10-04T10:38:59;1.90;;;0.98;;
38843;SDS011;24596;48.080;8.362;2022-10-04T10:41:33;3.35;;;1.25;;
38843;SDS011;24596;48.080;8.362;2022-10-04T10:44:07;2.92;;;1.02;;
38843;SDS011;24596;48.080;8.362;2022-10-04T10:46:44;2.05;;;1.02;;
38843;SDS011;24596;48.080;8.362;2022-10-04T10:51:49;2.87;;;0.90;;
38843;SDS011;24596;48.080;8.362;2022-10-04T11:04:55;2.20;;;0.77;;
38843;SDS011;24596;48.080;8.362;2022-10-04T11:20:31;3.88;;;1.00;;
38843;SDS011;24596;48.080;8.362;2022-10-04T11:46:14;3.60;;;1.05;;
38843;SDS011;24596;48.080;8.362;2022-10-04T11:49:05;1.63;;;0.80;;
38843;SDS011;24596;48.080;8.362;2022-10-04T11:57:23;2.05;;;1.05;;
38843;SDS011;24596;48.080;8.362;2022-10-04T12:15:26;3.22;;;1.00;;
38843;SDS011;24596;48.080;8.362;2022-10-04T12:28:50;4.10;;;1.13;;
38843;SDS011;24596;48.080;8.362;2022-10-04T12:31:21;4.22;;;1.25;;
38843;SDS011;24596;48.080;8.362;2022-10-04T12:44:05;2.93;;;1.60;;
38843;SDS011;24596;48.080;8.362;2022-10-04T12:49:23;3.05;;;1.48;;
38843;SDS011;24596;48.080;8.362;2022-10-04T12:52:09;4.82;;;1.80;;
38843;SDS011;24596;48.080;8.362;2022-10-04T12:54:45;5.00;;;1.60;;
38843;SDS011;24596;48.080;8.362;2022-10-04T13:05:13;5.05;;;1.75;;
38843;SDS011;24596;48.080;8.362;2022-10-04T13:12:59;3.08;;;1.40;;
38843;SDS011;24596;48.080;8.362;2022-10-04T13:31:03;4.20;;;1.77;;
38843;SDS011;24596;48.080;8.362;2022-10-04T13:44:21;5.57;;;1.55;;
38843;SDS011;24596;48.080;8.362;2022-10-04T13:49:25;5.60;;;1.70;;
38843;SDS011;24596;48.080;8.362;2022-10-04T13:57:54;7.18;;;1.75;;
38843;SDS011;24596;48.080;8.362;2022-10-04T14:00:33;4.65;;;1.50;;
38843;SDS011;24596;48.080;8.362;2022-10-04T14:08:58;3.00;;;1.48;;
38843;SDS011;24596;48.080;8.362;2022-10-04T14:14:16;2.90;;;1.50;;
38843;SDS011;24596;48.080;8.362;2022-10-04T14:17:04;4.93;;;1.63;;
38843;SDS011;24596;48.080;8.362;2022-10-04T14:25:29;3.67;;;1.48;;
38843;SDS011;24596;48.080;8.362;2022-10-04T14:30:14;4.85;;;1.40;;
38843;SDS011;24596;48.080;8.362;2022-10-04T14:35:26;5.45;;;1.52;;
38843;SDS011;24596;48.080;8.362;2022-10-04T14:38:37;5.32;;;1.60;;
38843;SDS011;24596;48.080;8.362;2022-10-04T14:51:44;3.83;;;1.30;;
38843;SDS011;24596;48.080;8.362;2022-10-04T15:02:07;3.75;;;1.40;;
38843;SDS011;24596;48.080;8.362;2022-10-04T15:12:39;4.45;;;1.80;;
38843;SDS011;24596;48.080;8.362;2022-10-04T15:23:06;3.70;;;1.58;;
38843;SDS011;24596;48.080;8.362;2022-10-04T15:54:14;4.90;;;1.70;;
38843;SDS011;24596;48.080;8.362;2022-10-04T15:56:47;3.88;;;1.73;;
38843;SDS011;24596;48.080;8.362;2022-10-04T16:07:10;4.78;;;1.63;;
38843;SDS011;24596;48.080;8.362;2022-10-04T16:09:49;4.07;;;1.73;;
38843;SDS011;24596;48.080;8.362;2022-10-04T16:14:56;3.88;;;1.40;;
38843;SDS011;24596;48.080;8.362;2022-10-04T16:20:13;3.78;;;1.77;;
38843;SDS011;24596;48.080;8.362;2022-10-04T16:23:20;5.47;;;1.70;;
38843;SDS011;24596;48.080;8.362;2022-10-04T16:25:36;3.13;;;1.75;;
38843;SDS011;24596;48.080;8.362;2022-10-04T16:28:07;3.85;;;1.70;;
38843;SDS011;24596;48.080;8.362;2022-10-04T16:33:25;5.03;;;1.75;;
38843;SDS011;24596;48.080;8.362;2022-10-04T16:36:13;4.32;;;1.70;;
38843;SDS011;24596;48.080;8.362;2022-10-04T16:38:44;3.78;;;1.70;;
38843;SDS011;24596;48.080;8.362;2022-10-04T16:44:33;4.20;;;2.35;;
38843;SDS011;24596;48.080;8.362;2022-10-04T16:47:01;4.68;;;2.10;;
38843;SDS011;24596;48.080;8.362;2022-10-04T16:49:38;4.35;;;2.00;;
38843;SDS011;24596;48.080;8.362;2022-10-04T16:57:25;7.65;;;3.60;;
38843;SDS011;24596;48.080;8.362;2022-10-04T17:10:33;9.55;;;4.05;;
38843;SDS011;24596;48.080;8.362;2022-10-04T17:13:07;8.40;;;3.85;;
38843;SDS011;24596;48.080;8.362;2022-10-04T17:21:19;21.83;;;9.45;;
38843;SDS011;24596;48.080;8.362;2022-10-04T17:24:21;16.00;;;8.43;;
38843;SDS011;24596;48.080;8.362;2022-10-04T17:26:41;16.08;;;6.97;;
38843;SDS011;24596;48.080;8.362;2022-10-04T17:29:27;12.93;;;5.82;;
38843;SDS011;24596;48.080;8.362;2022-10-04T17:31:57;12.50;;;5.53;;
38843;SDS011;24596;48.080;8.362;2022-10-04T17:42:12;24.80;;;5.05;;
38843;SDS011;24596;48.080;8.362;2022-10-04T17:50:28;8.75;;;3.42;;
38843;SDS011;24596;48.080;8.362;2022-10-04T17:53:14;7.90;;;3.42;;
38843;SDS011;24596;48.080;8.362;2022-10-04T17:56:00;10.95;;;4.38;;
38843;SDS011;24596;48.080;8.362;2022-10-04T17:58:43;9.32;;;4.07;;
38843;SDS011;24596;48.080;8.362;2022-10-04T18:06:14;12.80;;;5.13;;
38843;SDS011;24596;48.080;8.362;2022-10-04T18:08:43;8.77;;;4.72;;
38843;SDS011;24596;48.080;8.362;2022-10-04T18:11:45;10.90;;;4.97;;
38843;SDS011;24596;48.080;8.362;2022-10-04T18:14:05;16.88;;;5.60;;
38843;SDS011;24596;48.080;8.362;2022-10-04T18:21:53;18.77;;;5.10;;
38843;SDS011;24596;48.080;8.362;2022-10-04T18:24:20;10.82;;;4.72;;
38843;SDS011;24596;48.080;8.362;2022-10-04T18:27:01;14.77;;;5.40;;
38843;SDS011;24596;48.080;8.362;2022-10-04T18:29:38;12.32;;;6.10;;
38843;SDS011;24596;48.080;8.362;2022-10-04T18:34:52;11.13;;;4.07;;
38843;SDS011;24596;48.080;8.362;2022-10-04T18:37:18;8.30;;;4.25;;
38843;SDS011;24596;48.080;8.362;2022-10-04T18:39:45;9.13;;;4.47;;
38843;SDS011;24596;48.080;8.362;2022-10-04T18:42:14;12.27;;;5.78;;
38843;SDS011;24596;48.080;8.362;2022-10-04T18:45:00;11.40;;;5.70;;
38843;SDS011;24596;48.080;8.362;2022-10-04T18:47:36;10.07;;;5.07;;
38843;SDS011;24596;48.080;8.362;2022-10-04T18:50:13;9.55;;;4.30;;
38843;SDS011;24596;48.080;8.362;2022-10-04T18:53:25;8.95;;;3.78;;
38843;SDS011;24596;48.080;8.362;2022-10-04T19:01:03;9.82;;;4.32;;
38843;SDS011;24596;48.080;8.362;2022-10-04T19:03:55;9.05;;;3.78;;
38843;SDS011;24596;48.080;8.362;2022-10-04T19:06:24;7.70;;;4.00;;
38843;SDS011;24596;48.080;8.362;2022-10-04T19:17:13;11.52;;;6.88;;
38843;SDS011;24596;48.080;8.362;2022-10-04T19:19:55;12.10;;;5.82;;
38843;SDS011;24596;48.080;8.362;2022-10-04T19:22:30;14.05;;;5.45;;
38843;SDS011;24596;48.080;8.362;2022-10-04T19:27:37;10.27;;;5.25;;
38843;SDS011;24596;48.080;8.362;2022-10-04T19:40:45;16.70;;;9.27;;
38843;SDS011;24596;48.080;8.362;2022-10-04T19:48:10;11.38;;;5.03;;
38843;SDS011;24596;48.080;8.362;2022-10-04T19:50:39;14.10;;;5.93;;
38843;SDS011;24596;48.080;8.362;2022-10-04T19:58:07;13.60;;;8.40;;
38843;SDS011;24596;48.080;8.362;2022-10-04T20:00:37;9.43;;;5.97;;
38843;SDS011;24596;48.080;8.362;2022-10-04T20:03:04;8.10;;;5.13;;
38843;SDS011;24596;48.080;8.362;2022-10-04T20:05:33;8.73;;;5.50;;
38843;SDS011;24596;48.080;8.362;2022-10-04T20:10:41;11.23;;;6.50;;
38843;SDS011;24596;48.080;8.362;2022-10-04T20:18:27;15.10;;;5.20;;
38843;SDS011;24596;48.080;8.362;2022-10-04T20:21:08;11.90;;;5.15;;
38843;SDS011;24596;48.080;8.362;2022-10-04T20:29:06;8.25;;;4.53;;
38843;SDS011;24596;48.080;8.362;2022-10-04T20:36:47;9.82;;;3.97;;
38843;SDS011;24596;48.080;8.362;2022-10-04T20:42:29;7.60;;;3.90;;
38843;SDS011;24596;48.080;8.362;2022-10-04T20:44:54;12.60;;;4.68;;
38843;SDS011;24596;48.080;8.362;2022-10-04T20:47:23;9.25;;;4.18;;
38843;SDS011;24596;48.080;8.362;2022-10-04T20:49:52;7.82;;;3.58;;
38843;SDS011;24596;48.080;8.362;2022-10-04T20:52:21;10.80;;;4.07;;
38843;SDS011;24596;48.080;8.362;2022-10-04T20:54:50;10.52;;;4.30;;
38843;SDS011;24596;48.080;8.362;2022-10-04T20:57:17;7.97;;;4.20;;
38843;SDS011;24596;48.080;8.362;2022-10-04T20:59:42;9.85;;;3.83;;
38843;SDS011;24596;48.080;8.362;2022-10-04T21:02:12;8.18;;;3.95;;
38843;SDS011;24596;48.080;8.362;2022-10-04T21:04:39;7.40;;;3.90;;
38843;SDS011;24596;48.080;8.362;2022-10-04T21:07:09;9.07;;;4.28;;
38843;SDS011;24596;48.080;8.362;2022-10-04T21:09:38;8.77;;;3.75;;
38843;SDS011;24596;48.080;8.362;2022-10-04T21:12:04;7.85;;;3.60;;
38843;SDS011;24596;48.080;8.362;2022-10-04T21:14:31;9.15;;;4.38;;
38843;SDS011;24596;48.080;8.362;2022-10-04T21:16:57;9.25;;;4.25;;
38843;SDS011;24596;48.080;8.362;2022-10-04T21:22:00;8.77;;;5.20;;
38843;SDS011;24596;48.080;8.362;2022-10-04T21:24:36;9.02;;;5.20;;
38843;SDS011;24596;48.080;8.362;2022-10-04T21:27:02;13.98;;;7.07;;
38843;SDS011;24596;48.080;8.362;2022-10-04T21:29:28;9.13;;;4.88;;
38843;SDS011;24596;48.080;8.362;2022-10-04T21:31:57;7.00;;;4.25;;
38843;SDS011;24596;48.080;8.362;2022-10-04T21:34:22;6.00;;;3.50;;
38843;SDS011;24596;48.080;8.362;2022-10-04T21:36:47;6.93;;;3.22;;
38843;SDS011;24596;48.080;8.362;2022-10-04T21:39:13;6.68;;;3.67;;
38843;SDS011;24596;48.080;8.362;2022-10-04T21:41:38;5.57;;;3.47;;
38843;SDS011;24596;48.080;8.362;2022-10-04T21:44:03;7.55;;;3.70;;
38843;SDS011;24596;48.080;8.362;2022-10-04T21:46:28;6.40;;;3.20;;
38843;SDS011;24596;48.080;8.362;2022-10-04T21:48:54;6.03;;;3.03;;
38843;SDS011;24596;48.080;8.362;2022-10-04T21:51:19;5.90;;;2.90;;
38843;SDS011;24596;48.080;8.362;2022-10-04T21:53:44;5.25;;;2.45;;
38843;SDS011;24596;48.080;8.362;2022-10-04T21:56:09;6.05;;;2.88;;
38843;SDS011;24596;48.080;8.362;2022-10-04T21:58:34;9.00;;;3.10;;
38843;SDS011;24596;48.080;8.362;2022-10-04T22:01:00;6.75;;;2.72;;
38843;SDS011;24596;48.080;8.362;2022-10-04T22:03:25;6.72;;;2.80;;
38843;SDS011;24596;48.080;8.362;2022-10-04T22:05:50;6.53;;;3.15;;
38843;SDS011;24596;48.080;8.362;2022-10-04T22:08:15;6.10;;;3.10;;
38843;SDS011;24596;48.080;8.362;2022-10-04T22:10:41;8.30;;;2.80;;
38843;SDS011;24596;48.080;8.362;2022-10-04T22:13:07;5.50;;;2.53;;
38843;SDS011;24596;48.080;8.362;2022-10-04T22:15:32;7.45;;;2.55;;
38843;SDS011;24596;48.080;8.362;2022-10-04T22:17:57;6.55;;;2.60;;
38843;SDS011;24596;48.080;8.362;2022-10-04T22:20:23;5.85;;;3.13;;
38843;SDS011;24596;48.080;8.362;2022-10-04T22:22:48;6.47;;;3.40;;
38843;SDS011;24596;48.080;8.362;2022-10-04T22:25:18;7.70;;;3.08;;
38843;SDS011;24596;48.080;8.362;2022-10-04T22:27:44;9.00;;;3.17;;
38843;SDS011;24596;48.080;8.362;2022-10-04T22:30:19;5.13;;;2.88;;
38843;SDS011;24596;48.080;8.362;2022-10-04T22:32:45;5.97;;;2.83;;
38843;SDS011;24596;48.080;8.362;2022-10-04T22:35:11;6.82;;;3.55;;
38843;SDS011;24596;48.080;8.362;2022-10-04T22:37:37;6.32;;;3.78;;
38843;SDS011;24596;48.080;8.362;2022-10-04T22:40:02;10.63;;;3.75;;
38843;SDS011;24596;48.080;8.362;2022-10-04T22:42:29;7.35;;;3.95;;
38843;SDS011;24596;48.080;8.362;2022-10-04T22:44:55;5.78;;;2.95;;
38843;SDS011;24596;48.080;8.362;2022-10-04T22:47:21;8.45;;;3.38;;
38843;SDS011;24596;48.080;8.362;2022-10-04T22:49:48;5.97;;;2.85;;
38843;SDS011;24596;48.080;8.362;2022-10-04T22:52:17;6.70;;;3.17;;
38843;SDS011;24596;48.080;8.362;2022-10-04T22:54:46;6.10;;;3.03;;
38843;SDS011;24596;48.080;8.362;2022-10-04T22:57:13;5.30;;;2.70;;
38843;SDS011;24596;48.080;8.362;2022-10-04T22:59:39;5.47;;;2.65;;
38843;SDS011;24596;48.080;8.362;2022-10-04T23:02:09;5.80;;;2.67;;
38843;SDS011;24596;48.080;8.362;2022-10-04T23:04:34;6.32;;;2.80;;
38843;SDS011;24596;48.080;8.362;2022-10-04T23:07:00;12.90;;;2.67;;
38843;SDS011;24596;48.080;8.362;2022-10-04T23:09:25;7.47;;;2.60;;
38843;SDS011;24596;48.080;8.362;2022-10-04T23:11:50;7.78;;;2.35;;
38843;SDS011;24596;48.080;8.362;2022-10-04T23:14:15;5.40;;;2.50;;
38843;SDS011;24596;48.080;8.362;2022-10-04T23:16:41;5.10;;;2.35;;
38843;SDS011;24596;48.080;8.362;2022-10-04T23:19:10;8.55;;;2.40;;
38843;SDS011;24596;48.080;8.362;2022-10-04T23:21:36;5.47;;;2.90;;
38843;SDS011;24596;48.080;8.362;2022-10-04T23:24:08;5.95;;;2.30;;
38843;SDS011;24596;48.080;8.362;2022-10-04T23:26:38;4.80;;;2.25;;
38843;SDS011;24596;48.080;8.362;2022-10-04T23:29:16;6.90;;;2.22;;
38843;SDS011;24596;48.080;8.362;2022-10-04T23:31:43;5.28;;;2.45;;
38843;SDS011;24596;48.080;8.362;2022-10-04T23:34:15;6.45;;;2.67;;
38843;SDS011;24596;48.080;8.362;2022-10-04T23:36:43;8.00;;;2.53;;
38843;SDS011;24596;48.080;8.362;2022-10-04T23:39:10;7.32;;;3.13;;
38843;SDS011;24596;48.080;8.362;2022-10-04T23:41:36;10.48;;;3.85;;
38843;SDS011;24596;48.080;8.362;2022-10-04T23:44:02;6.40;;;3.22;;
38843;SDS011;24596;48.080;8.362;2022-10-04T23:46:27;4.68;;;2.78;;
38843;SDS011;24596;48.080;8.362;2022-10-04T23:48:53;6.97;;;2.80;;
38843;SDS011;24596;48.080;8.362;2022-10-04T23:51:18;6.13;;;2.22;;
38843;SDS011;24596;48.080;8.362;2022-10-04T23:53:45;7.35;;;3.75;;
38843;SDS011;24596;48.080;8.362;2022-10-04T23:56:14;5.65;;;2.75;;
38843;SDS011;24596;48.080;8.362;2022-10-04T23:58:40;7.72;;;2.50;;
